sensor_id;sensor_type;location;lat;lon;timestamp;P1;durP1;ratioP1;P2;durP2;ratioP2
3259;SDS011;22469;48.150;14.004;2022-09-27T00:01:05;7.93;;;5.93;;
3259;SDS011;22469;48.150;14.004;2022-09-27T00:03:35;5.63;;;5.13;;
3259;SDS011;22469;48.150;14.004;2022-09-27T00:06:07;6.00;;;5.53;;
3259;SDS011;22469;48.150;14.004;2022-09-27T00:08:39;5.73;;;5.27;;
3259;SDS011;22469;48.150;14.004;2022-09-27T00:11:09;5.27;;;4.87;;
3259;SDS011;22469;48.150;14.004;2022-09-27T00:13:54;5.47;;;5.07;;
3259;SDS011;22469;48.150;14.004;2022-09-27T00:16:24;5.37;;;5.00;;
3259;SDS011;22469;48.150;14.004;2022-09-27T00:19:01;5.53;;;5.03;;
3259;SDS011;22469;48.150;14.004;2022-09-27T00:21:32;5.87;;;5.37;;
3259;SDS011;22469;48.150;14.004;2022-09-27T00:23:59;5.60;;;5.10;;
3259;SDS011;22469;48.150;14.004;2022-09-27T00:26:27;5.47;;;5.00;;
3259;SDS011;22469;48.150;14.004;2022-09-27T00:28:54;5.37;;;5.00;;
3259;SDS011;22469;48.150;14.004;2022-09-27T00:31:26;6.53;;;6.03;;
3259;SDS011;22469;48.150;14.004;2022-09-27T00:33:56;5.17;;;4.87;;
3259;SDS011;22469;48.150;14.004;2022-09-27T00:36:27;6.37;;;5.83;;
3259;SDS011;22469;48.150;14.004;2022-09-27T00:38:56;6.17;;;5.57;;
3259;SDS011;22469;48.150;14.004;2022-09-27T00:41:33;6.43;;;5.80;;
3259;SDS011;22469;48.150;14.004;2022-09-27T00:44:03;11.20;;;5.97;;
3259;SDS011;22469;48.150;14.004;2022-09-27T00:50:04;8.43;;;6.40;;
3259;SDS011;22469;48.150;14.004;2022-09-27T00:55:48;7.37;;;6.77;;
3259;SDS011;22469;48.150;14.004;2022-09-27T00:58:23;8.10;;;6.30;;
3259;SDS011;22469;48.150;14.004;2022-09-27T01:00:57;7.37;;;6.67;;
3259;SDS011;22469;48.150;14.004;2022-09-27T01:04:16;6.37;;;5.90;;
3259;SDS011;22469;48.150;14.004;2022-09-27T01:06:29;9.83;;;6.60;;
3259;SDS011;22469;48.150;14.004;2022-09-27T01:08:56;7.00;;;6.07;;
3259;SDS011;22469;48.150;14.004;2022-09-27T01:11:38;7.10;;;5.80;;
3259;SDS011;22469;48.150;14.004;2022-09-27T01:35:28;4.67;;;4.37;;
3259;SDS011;22469;48.150;14.004;2022-09-27T01:38:29;5.37;;;4.70;;
3259;SDS011;22469;48.150;14.004;2022-09-27T01:44:32;6.33;;;5.10;;
3259;SDS011;22469;48.150;14.004;2022-09-27T01:47:21;4.90;;;4.50;;
3259;SDS011;22469;48.150;14.004;2022-09-27T01:49:55;5.83;;;5.43;;
3259;SDS011;22469;48.150;14.004;2022-09-27T01:52:39;5.53;;;5.13;;
3259;SDS011;22469;48.150;14.004;2022-09-27T01:55:23;5.57;;;5.17;;
3259;SDS011;22469;48.150;14.004;2022-09-27T01:58:03;5.60;;;5.20;;
3259;SDS011;22469;48.150;14.004;2022-09-27T02:00:44;5.20;;;4.70;;
3259;SDS011;22469;48.150;14.004;2022-09-27T02:03:17;5.60;;;5.20;;
3259;SDS011;22469;48.150;14.004;2022-09-27T02:05:53;5.53;;;5.03;;
3259;SDS011;22469;48.150;14.004;2022-09-27T02:11:11;5.30;;;5.00;;
3259;SDS011;22469;48.150;14.004;2022-09-27T02:19:26;6.47;;;5.87;;
3259;SDS011;22469;48.150;14.004;2022-09-27T02:25:20;7.90;;;5.67;;
3259;SDS011;22469;48.150;14.004;2022-09-27T02:30:41;7.83;;;7.17;;
3259;SDS011;22469;48.150;14.004;2022-09-27T02:33:08;6.40;;;5.83;;
3259;SDS011;22469;48.150;14.004;2022-09-27T02:35:35;6.10;;;5.60;;
3259;SDS011;22469;48.150;14.004;2022-09-27T02:38:03;6.30;;;5.83;;
3259;SDS011;22469;48.150;14.004;2022-09-27T02:40:33;6.63;;;6.03;;
3259;SDS011;22469;48.150;14.004;2022-09-27T02:43:10;6.53;;;5.97;;
3259;SDS011;22469;48.150;14.004;2022-09-27T03:01:39;8.50;;;7.60;;
3259;SDS011;22469;48.150;14.004;2022-09-27T03:04:24;8.67;;;7.97;;
3259;SDS011;22469;48.150;14.004;2022-09-27T03:07:06;8.47;;;7.77;;
3259;SDS011;22469;48.150;14.004;2022-09-27T03:09:43;10.37;;;9.50;;
3259;SDS011;22469;48.150;14.004;2022-09-27T03:12:15;11.83;;;10.63;;
3259;SDS011;22469;48.150;14.004;2022-09-27T03:14:48;12.93;;;11.90;;
3259;SDS011;22469;48.150;14.004;2022-09-27T03:17:15;12.70;;;10.80;;
3259;SDS011;22469;48.150;14.004;2022-09-27T03:19:43;10.77;;;9.87;;
3259;SDS011;22469;48.150;14.004;2022-09-27T03:22:10;12.83;;;11.63;;
3259;SDS011;22469;48.150;14.004;2022-09-27T03:24:37;12.03;;;10.93;;
3259;SDS011;22469;48.150;14.004;2022-09-27T03:27:04;12.93;;;11.63;;
3259;SDS011;22469;48.150;14.004;2022-09-27T03:29:32;12.93;;;11.83;;
3259;SDS011;22469;48.150;14.004;2022-09-27T03:31:59;13.17;;;11.80;;
3259;SDS011;22469;48.150;14.004;2022-09-27T03:34:27;12.93;;;11.63;;
3259;SDS011;22469;48.150;14.004;2022-09-27T03:36:55;11.40;;;10.27;;
3259;SDS011;22469;48.150;14.004;2022-09-27T03:39:22;12.40;;;11.33;;
3259;SDS011;22469;48.150;14.004;2022-09-27T03:41:49;12.17;;;11.10;;
3259;SDS011;22469;48.150;14.004;2022-09-27T03:44:16;12.87;;;11.47;;
3259;SDS011;22469;48.150;14.004;2022-09-27T03:46:43;12.33;;;11.23;;
3259;SDS011;22469;48.150;14.004;2022-09-27T03:49:10;13.33;;;12.07;;
3259;SDS011;22469;48.150;14.004;2022-09-27T03:51:37;13.77;;;12.43;;
3259;SDS011;22469;48.150;14.004;2022-09-27T03:54:05;15.23;;;13.83;;
3259;SDS011;22469;48.150;14.004;2022-09-27T03:56:32;16.70;;;14.97;;
3259;SDS011;22469;48.150;14.004;2022-09-27T03:58:59;15.23;;;13.90;;
3259;SDS011;22469;48.150;14.004;2022-09-27T04:01:26;14.10;;;12.70;;
3259;SDS011;22469;48.150;14.004;2022-09-27T04:03:54;15.17;;;13.67;;
3259;SDS011;22469;48.150;14.004;2022-09-27T04:06:21;16.67;;;14.87;;
3259;SDS011;22469;48.150;14.004;2022-09-27T04:08:49;14.37;;;12.97;;
3259;SDS011;22469;48.150;14.004;2022-09-27T04:11:16;13.93;;;12.63;;
3259;SDS011;22469;48.150;14.004;2022-09-27T04:13:43;15.00;;;13.23;;
3259;SDS011;22469;48.150;14.004;2022-09-27T04:16:11;15.20;;;13.80;;
3259;SDS011;22469;48.150;14.004;2022-09-27T04:18:38;14.53;;;13.13;;
3259;SDS011;22469;48.150;14.004;2022-09-27T04:21:05;15.03;;;13.63;;
3259;SDS011;22469;48.150;14.004;2022-09-27T04:23:33;14.37;;;12.90;;
3259;SDS011;22469;48.150;14.004;2022-09-27T04:26:01;14.27;;;12.97;;
3259;SDS011;22469;48.150;14.004;2022-09-27T04:28:29;15.33;;;14.03;;
3259;SDS011;22469;48.150;14.004;2022-09-27T04:30:57;12.87;;;11.70;;
3259;SDS011;22469;48.150;14.004;2022-09-27T04:33:25;14.90;;;13.40;;
3259;SDS011;22469;48.150;14.004;2022-09-27T04:35:52;16.40;;;13.70;;
3259;SDS011;22469;48.150;14.004;2022-09-27T04:38:38;14.47;;;12.83;;
3259;SDS011;22469;48.150;14.004;2022-09-27T04:41:05;16.03;;;14.23;;
3259;SDS011;22469;48.150;14.004;2022-09-27T04:43:33;15.20;;;13.80;;
3259;SDS011;22469;48.150;14.004;2022-09-27T04:46:00;16.53;;;14.93;;
3259;SDS011;22469;48.150;14.004;2022-09-27T04:48:27;18.37;;;16.57;;
3259;SDS011;22469;48.150;14.004;2022-09-27T04:50:55;15.50;;;14.00;;
3259;SDS011;22469;48.150;14.004;2022-09-27T04:53:30;16.10;;;14.50;;
3259;SDS011;22469;48.150;14.004;2022-09-27T04:55:57;17.43;;;15.10;;
3259;SDS011;22469;48.150;14.004;2022-09-27T04:58:28;22.10;;;18.53;;
3259;SDS011;22469;48.150;14.004;2022-09-27T05:00:55;21.33;;;16.63;;
3259;SDS011;22469;48.150;14.004;2022-09-27T05:03:22;18.70;;;16.10;;
3259;SDS011;22469;48.150;14.004;2022-09-27T05:05:49;18.67;;;16.87;;
3259;SDS011;22469;48.150;14.004;2022-09-27T05:08:17;19.30;;;17.30;;
3259;SDS011;22469;48.150;14.004;2022-09-27T05:10:44;19.80;;;17.70;;
3259;SDS011;22469;48.150;14.004;2022-09-27T05:13:11;21.27;;;18.30;;
3259;SDS011;22469;48.150;14.004;2022-09-27T05:15:40;23.10;;;17.70;;
3259;SDS011;22469;48.150;14.004;2022-09-27T05:18:07;20.27;;;18.10;;
3259;SDS011;22469;48.150;14.004;2022-09-27T05:20:35;22.33;;;17.87;;
3259;SDS011;22469;48.150;14.004;2022-09-27T05:23:03;22.97;;;18.47;;
3259;SDS011;22469;48.150;14.004;2022-09-27T05:25:31;21.80;;;19.20;;
3259;SDS011;22469;48.150;14.004;2022-09-27T05:27:58;20.43;;;18.20;;
3259;SDS011;22469;48.150;14.004;2022-09-27T05:30:25;19.50;;;17.50;;
3259;SDS011;22469;48.150;14.004;2022-09-27T05:32:53;19.70;;;16.53;;
3259;SDS011;22469;48.150;14.004;2022-09-27T05:35:20;18.03;;;16.13;;
3259;SDS011;22469;48.150;14.004;2022-09-27T05:37:51;17.33;;;15.47;;
3259;SDS011;22469;48.150;14.004;2022-09-27T05:40:21;15.30;;;13.70;;
3259;SDS011;22469;48.150;14.004;2022-09-27T05:43:07;13.97;;;12.60;;
3259;SDS011;22469;48.150;14.004;2022-09-27T05:45:34;13.13;;;12.00;;
3259;SDS011;22469;48.150;14.004;2022-09-27T05:48:02;10.50;;;9.40;;
3259;SDS011;22469;48.150;14.004;2022-09-27T05:50:30;8.73;;;7.93;;
3259;SDS011;22469;48.150;14.004;2022-09-27T05:52:58;7.90;;;7.30;;
3259;SDS011;22469;48.150;14.004;2022-09-27T05:55:25;6.87;;;6.27;;
3259;SDS011;22469;48.150;14.004;2022-09-27T05:57:56;5.47;;;5.07;;
3259;SDS011;22469;48.150;14.004;2022-09-27T06:00:28;5.00;;;4.60;;
3259;SDS011;22469;48.150;14.004;2022-09-27T06:02:57;4.70;;;4.40;;
3259;SDS011;22469;48.150;14.004;2022-09-27T06:05:27;4.90;;;4.10;;
3259;SDS011;22469;48.150;14.004;2022-09-27T06:07:58;5.33;;;4.87;;
3259;SDS011;22469;48.150;14.004;2022-09-27T06:10:28;4.50;;;3.90;;
3259;SDS011;22469;48.150;14.004;2022-09-27T06:13:04;4.83;;;4.43;;
3259;SDS011;22469;48.150;14.004;2022-09-27T06:15:38;4.63;;;4.10;;
3259;SDS011;22469;48.150;14.004;2022-09-27T06:18:10;3.87;;;3.60;;
3259;SDS011;22469;48.150;14.004;2022-09-27T06:20:41;6.37;;;5.73;;
3259;SDS011;22469;48.150;14.004;2022-09-27T06:23:10;3.80;;;3.50;;
3259;SDS011;22469;48.150;14.004;2022-09-27T06:25:40;5.83;;;3.80;;
3259;SDS011;22469;48.150;14.004;2022-09-27T06:28:08;4.70;;;4.30;;
3259;SDS011;22469;48.150;14.004;2022-09-27T06:30:40;8.27;;;5.10;;
3259;SDS011;22469;48.150;14.004;2022-09-27T06:33:11;6.53;;;4.47;;
3259;SDS011;22469;48.150;14.004;2022-09-27T06:35:42;5.03;;;4.53;;
3259;SDS011;22469;48.150;14.004;2022-09-27T06:38:12;3.90;;;3.57;;
3259;SDS011;22469;48.150;14.004;2022-09-27T06:40:44;4.27;;;3.90;;
3259;SDS011;22469;48.150;14.004;2022-09-27T06:43:15;4.57;;;4.17;;
3259;SDS011;22469;48.150;14.004;2022-09-27T06:45:48;5.17;;;4.50;;
3259;SDS011;22469;48.150;14.004;2022-09-27T06:48:16;4.63;;;4.27;;
3259;SDS011;22469;48.150;14.004;2022-09-27T06:50:44;4.03;;;3.80;;
3259;SDS011;22469;48.150;14.004;2022-09-27T06:53:15;4.47;;;4.17;;
3259;SDS011;22469;48.150;14.004;2022-09-27T06:55:42;4.77;;;4.30;;
3259;SDS011;22469;48.150;14.004;2022-09-27T06:58:10;5.03;;;4.27;;
3259;SDS011;22469;48.150;14.004;2022-09-27T07:00:56;4.43;;;4.13;;
3259;SDS011;22469;48.150;14.004;2022-09-27T07:03:24;4.53;;;4.17;;
3259;SDS011;22469;48.150;14.004;2022-09-27T07:06:02;4.60;;;4.27;;
3259;SDS011;22469;48.150;14.004;2022-09-27T07:08:32;8.30;;;4.20;;
3259;SDS011;22469;48.150;14.004;2022-09-27T07:11:02;4.00;;;3.80;;
3259;SDS011;22469;48.150;14.004;2022-09-27T07:13:32;5.10;;;4.70;;
3259;SDS011;22469;48.150;14.004;2022-09-27T07:16:02;5.10;;;4.60;;
3259;SDS011;22469;48.150;14.004;2022-09-27T07:18:30;5.80;;;4.60;;
3259;SDS011;22469;48.150;14.004;2022-09-27T07:20:58;4.70;;;4.37;;
3259;SDS011;22469;48.150;14.004;2022-09-27T07:23:27;4.27;;;3.90;;
3259;SDS011;22469;48.150;14.004;2022-09-27T07:25:54;3.87;;;3.57;;
3259;SDS011;22469;48.150;14.004;2022-09-27T07:28:22;4.20;;;3.90;;
3259;SDS011;22469;48.150;14.004;2022-09-27T07:30:53;4.23;;;3.87;;
3259;SDS011;22469;48.150;14.004;2022-09-27T07:33:22;4.70;;;4.30;;
3259;SDS011;22469;48.150;14.004;2022-09-27T07:35:49;4.43;;;4.07;;
3259;SDS011;22469;48.150;14.004;2022-09-27T07:38:17;3.73;;;3.53;;
3259;SDS011;22469;48.150;14.004;2022-09-27T07:40:45;4.17;;;3.87;;
3259;SDS011;22469;48.150;14.004;2022-09-27T07:43:13;4.00;;;3.70;;
3259;SDS011;22469;48.150;14.004;2022-09-27T07:45:40;3.73;;;3.30;;
3259;SDS011;22469;48.150;14.004;2022-09-27T07:48:07;3.77;;;3.57;;
3259;SDS011;22469;48.150;14.004;2022-09-27T07:50:40;4.87;;;4.10;;
3259;SDS011;22469;48.150;14.004;2022-09-27T07:53:07;3.70;;;3.40;;
3259;SDS011;22469;48.150;14.004;2022-09-27T07:55:38;5.03;;;4.57;;
3259;SDS011;22469;48.150;14.004;2022-09-27T07:58:07;4.67;;;4.30;;
3259;SDS011;22469;48.150;14.004;2022-09-27T08:00:38;4.20;;;3.90;;
3259;SDS011;22469;48.150;14.004;2022-09-27T08:03:10;5.00;;;4.50;;
3259;SDS011;22469;48.150;14.004;2022-09-27T08:05:42;5.10;;;4.60;;
3259;SDS011;22469;48.150;14.004;2022-09-27T08:08:11;5.23;;;4.83;;
3259;SDS011;22469;48.150;14.004;2022-09-27T08:10:39;5.57;;;5.07;;
3259;SDS011;22469;48.150;14.004;2022-09-27T08:13:10;6.17;;;5.63;;
3259;SDS011;22469;48.150;14.004;2022-09-27T08:15:39;5.90;;;5.30;;
3259;SDS011;22469;48.150;14.004;2022-09-27T08:18:06;4.43;;;4.13;;
3259;SDS011;22469;48.150;14.004;2022-09-27T08:20:36;4.40;;;4.10;;
3259;SDS011;22469;48.150;14.004;2022-09-27T08:23:04;4.53;;;4.13;;
3259;SDS011;22469;48.150;14.004;2022-09-27T08:25:31;5.37;;;4.93;;
3259;SDS011;22469;48.150;14.004;2022-09-27T08:27:59;6.17;;;5.63;;
3259;SDS011;22469;48.150;14.004;2022-09-27T08:30:30;5.97;;;5.47;;
3259;SDS011;22469;48.150;14.004;2022-09-27T08:32:59;4.67;;;4.37;;
3259;SDS011;22469;48.150;14.004;2022-09-27T08:35:28;3.63;;;3.40;;
3259;SDS011;22469;48.150;14.004;2022-09-27T08:38:00;3.83;;;3.53;;
3259;SDS011;22469;48.150;14.004;2022-09-27T08:40:37;3.33;;;3.13;;
3259;SDS011;22469;48.150;14.004;2022-09-27T08:49:03;2.80;;;2.70;;
3259;SDS011;22469;48.150;14.004;2022-09-27T08:51:38;2.57;;;2.47;;
3259;SDS011;22469;48.150;14.004;2022-09-27T08:54:13;2.80;;;2.60;;
3259;SDS011;22469;48.150;14.004;2022-09-27T08:56:47;1.73;;;1.63;;
3259;SDS011;22469;48.150;14.004;2022-09-27T08:59:15;1.67;;;1.57;;
3259;SDS011;22469;48.150;14.004;2022-09-27T09:01:48;2.30;;;2.20;;
3259;SDS011;22469;48.150;14.004;2022-09-27T09:04:39;1.90;;;1.80;;
3259;SDS011;22469;48.150;14.004;2022-09-27T09:16:05;1.60;;;1.60;;
3259;SDS011;22469;48.150;14.004;2022-09-27T09:22:27;1.73;;;1.47;;
3259;SDS011;22469;48.150;14.004;2022-09-27T09:35:52;1.00;;;1.00;;
3259;SDS011;22469;48.150;14.004;2022-09-27T09:41:24;1.23;;;0.93;;
3259;SDS011;22469;48.150;14.004;2022-09-27T09:44:21;1.00;;;1.00;;
3259;SDS011;22469;48.150;14.004;2022-09-27T09:46:59;1.43;;;1.10;;
3259;SDS011;22469;48.150;14.004;2022-09-27T09:49:36;1.73;;;1.17;;
3259;SDS011;22469;48.150;14.004;2022-09-27T09:52:19;2.30;;;1.30;;
3259;SDS011;22469;48.150;14.004;2022-09-27T09:54:56;1.10;;;1.10;;
3259;SDS011;22469;48.150;14.004;2022-09-27T09:57:33;0.90;;;0.90;;
3259;SDS011;22469;48.150;14.004;2022-09-27T10:00:12;1.60;;;1.50;;
3259;SDS011;22469;48.150;14.004;2022-09-27T10:02:42;1.17;;;1.17;;
3259;SDS011;22469;48.150;14.004;2022-09-27T10:05:13;0.93;;;0.93;;
3259;SDS011;22469;48.150;14.004;2022-09-27T10:07:47;1.30;;;1.20;;
3259;SDS011;22469;48.150;14.004;2022-09-27T10:10:19;0.90;;;0.87;;
3259;SDS011;22469;48.150;14.004;2022-09-27T10:12:47;1.00;;;1.00;;
3259;SDS011;22469;48.150;14.004;2022-09-27T10:15:17;0.90;;;0.90;;
3259;SDS011;22469;48.150;14.004;2022-09-27T10:17:51;1.13;;;1.00;;
3259;SDS011;22469;48.150;14.004;2022-09-27T10:20:33;1.13;;;0.90;;
3259;SDS011;22469;48.150;14.004;2022-09-27T10:23:09;1.17;;;1.17;;
3259;SDS011;22469;48.150;14.004;2022-09-27T10:25:45;0.90;;;0.90;;
3259;SDS011;22469;48.150;14.004;2022-09-27T10:28:29;2.60;;;1.00;;
3259;SDS011;22469;48.150;14.004;2022-09-27T10:31:09;1.33;;;0.90;;
3259;SDS011;22469;48.150;14.004;2022-09-27T10:33:56;2.87;;;1.20;;
3259;SDS011;22469;48.150;14.004;2022-09-27T10:36:31;2.80;;;1.03;;
3259;SDS011;22469;48.150;14.004;2022-09-27T10:39:02;1.30;;;1.20;;
3259;SDS011;22469;48.150;14.004;2022-09-27T10:41:33;1.60;;;1.50;;
3259;SDS011;22469;48.150;14.004;2022-09-27T10:46:42;0.90;;;0.90;;
3259;SDS011;22469;48.150;14.004;2022-09-27T10:51:53;0.80;;;0.80;;
3259;SDS011;22469;48.150;14.004;2022-09-27T10:54:25;0.80;;;0.80;;
3259;SDS011;22469;48.150;14.004;2022-09-27T10:56:56;1.23;;;0.80;;
3259;SDS011;22469;48.150;14.004;2022-09-27T10:59:27;1.70;;;1.07;;
3259;SDS011;22469;48.150;14.004;2022-09-27T11:02:01;0.77;;;0.77;;
3259;SDS011;22469;48.150;14.004;2022-09-27T11:04:32;2.10;;;0.97;;
3259;SDS011;22469;48.150;14.004;2022-09-27T11:07:15;0.90;;;0.90;;
3259;SDS011;22469;48.150;14.004;2022-09-27T11:09:52;0.60;;;0.60;;
3259;SDS011;22469;48.150;14.004;2022-09-27T11:12:25;0.60;;;0.60;;
3259;SDS011;22469;48.150;14.004;2022-09-27T11:15:00;0.70;;;0.70;;
3259;SDS011;22469;48.150;14.004;2022-09-27T11:20:20;0.60;;;0.60;;
3259;SDS011;22469;48.150;14.004;2022-09-27T11:29:29;0.73;;;0.73;;
3259;SDS011;22469;48.150;14.004;2022-09-27T11:41:20;1.10;;;1.00;;
3259;SDS011;22469;48.150;14.004;2022-09-27T12:08:09;0.70;;;0.70;;
3259;SDS011;22469;48.150;14.004;2022-09-27T12:10:57;0.67;;;0.67;;
3259;SDS011;22469;48.150;14.004;2022-09-27T12:13:47;1.00;;;1.00;;
3259;SDS011;22469;48.150;14.004;2022-09-27T12:16:21;2.30;;;0.97;;
3259;SDS011;22469;48.150;14.004;2022-09-27T12:18:51;1.00;;;1.00;;
3259;SDS011;22469;48.150;14.004;2022-09-27T12:21:20;1.20;;;1.10;;
3259;SDS011;22469;48.150;14.004;2022-09-27T12:23:49;0.80;;;0.80;;
3259;SDS011;22469;48.150;14.004;2022-09-27T12:26:24;2.33;;;0.93;;
3259;SDS011;22469;48.150;14.004;2022-09-27T12:29:11;0.70;;;0.70;;
3259;SDS011;22469;48.150;14.004;2022-09-27T12:32:01;1.27;;;0.87;;
3259;SDS011;22469;48.150;14.004;2022-09-27T12:37:33;1.03;;;0.77;;
3259;SDS011;22469;48.150;14.004;2022-09-27T12:40:34;1.40;;;1.30;;
3259;SDS011;22469;48.150;14.004;2022-09-27T12:43:17;1.50;;;1.40;;
3259;SDS011;22469;48.150;14.004;2022-09-27T12:51:49;3.20;;;2.00;;
3259;SDS011;22469;48.150;14.004;2022-09-27T13:00:45;3.87;;;3.50;;
3259;SDS011;22469;48.150;14.004;2022-09-27T13:12:03;2.17;;;2.07;;
3259;SDS011;22469;48.150;14.004;2022-09-27T13:14:59;2.90;;;2.70;;
3259;SDS011;22469;48.150;14.004;2022-09-27T13:25:56;1.03;;;1.00;;
3259;SDS011;22469;48.150;14.004;2022-09-27T13:44:25;0.80;;;0.80;;
3259;SDS011;22469;48.150;14.004;2022-09-27T13:47:02;0.80;;;0.80;;
3259;SDS011;22469;48.150;14.004;2022-09-27T13:50:13;0.80;;;0.80;;
3259;SDS011;22469;48.150;14.004;2022-09-27T13:56:01;0.70;;;0.70;;
3259;SDS011;22469;48.150;14.004;2022-09-27T13:58:34;2.83;;;1.00;;
3259;SDS011;22469;48.150;14.004;2022-09-27T14:04:41;0.70;;;0.70;;
3259;SDS011;22469;48.150;14.004;2022-09-27T14:07:18;0.83;;;0.83;;
3259;SDS011;22469;48.150;14.004;2022-09-27T14:09:53;1.63;;;0.80;;
3259;SDS011;22469;48.150;14.004;2022-09-27T14:12:27;1.00;;;1.00;;
3259;SDS011;22469;48.150;14.004;2022-09-27T14:15:01;0.80;;;0.80;;
3259;SDS011;22469;48.150;14.004;2022-09-27T14:17:30;0.70;;;0.70;;
3259;SDS011;22469;48.150;14.004;2022-09-27T14:19:58;0.80;;;0.80;;
3259;SDS011;22469;48.150;14.004;2022-09-27T14:22:29;1.10;;;1.00;;
3259;SDS011;22469;48.150;14.004;2022-09-27T14:24:56;0.90;;;0.90;;
3259;SDS011;22469;48.150;14.004;2022-09-27T14:27:24;0.73;;;0.73;;
3259;SDS011;22469;48.150;14.004;2022-09-27T14:29:55;1.07;;;0.80;;
3259;SDS011;22469;48.150;14.004;2022-09-27T14:32:29;0.63;;;0.63;;
3259;SDS011;22469;48.150;14.004;2022-09-27T14:35:07;0.90;;;0.90;;
3259;SDS011;22469;48.150;14.004;2022-09-27T14:37:59;1.03;;;0.97;;
3259;SDS011;22469;48.150;14.004;2022-09-27T14:40:57;1.50;;;1.40;;
3259;SDS011;22469;48.150;14.004;2022-09-27T14:43:28;2.20;;;2.10;;
3259;SDS011;22469;48.150;14.004;2022-09-27T14:45:58;1.03;;;1.03;;
3259;SDS011;22469;48.150;14.004;2022-09-27T14:48:29;1.30;;;1.20;;
3259;SDS011;22469;48.150;14.004;2022-09-27T14:53:48;1.60;;;1.50;;
3259;SDS011;22469;48.150;14.004;2022-09-27T14:56:27;1.00;;;1.00;;
3259;SDS011;22469;48.150;14.004;2022-09-27T14:59:21;1.33;;;1.20;;
3259;SDS011;22469;48.150;14.004;2022-09-27T15:02:01;1.80;;;1.40;;
3259;SDS011;22469;48.150;14.004;2022-09-27T15:04:43;3.73;;;1.30;;
3259;SDS011;22469;48.150;14.004;2022-09-27T15:07:12;2.30;;;0.90;;
3259;SDS011;22469;48.150;14.004;2022-09-27T15:09:43;1.23;;;0.80;;
3259;SDS011;22469;48.150;14.004;2022-09-27T15:12:12;1.23;;;0.97;;
3259;SDS011;22469;48.150;14.004;2022-09-27T15:14:51;0.70;;;0.70;;
3259;SDS011;22469;48.150;14.004;2022-09-27T15:17:23;0.60;;;0.60;;
3259;SDS011;22469;48.150;14.004;2022-09-27T15:19:57;0.60;;;0.60;;
3259;SDS011;22469;48.150;14.004;2022-09-27T15:22:43;0.70;;;0.70;;
3259;SDS011;22469;48.150;14.004;2022-09-27T15:27:57;0.67;;;0.67;;
3259;SDS011;22469;48.150;14.004;2022-09-27T15:30:38;0.70;;;0.70;;
3259;SDS011;22469;48.150;14.004;2022-09-27T15:33:18;0.90;;;0.90;;
3259;SDS011;22469;48.150;14.004;2022-09-27T15:35:52;0.80;;;0.80;;
3259;SDS011;22469;48.150;14.004;2022-09-27T15:38:36;1.53;;;0.90;;
3259;SDS011;22469;48.150;14.004;2022-09-27T15:41:13;0.80;;;0.80;;
3259;SDS011;22469;48.150;14.004;2022-09-27T15:43:50;2.80;;;0.90;;
3259;SDS011;22469;48.150;14.004;2022-09-27T15:51:46;1.03;;;0.90;;
3259;SDS011;22469;48.150;14.004;2022-09-27T15:54:28;0.70;;;0.70;;
3259;SDS011;22469;48.150;14.004;2022-09-27T15:57:02;2.17;;;2.07;;
3259;SDS011;22469;48.150;14.004;2022-09-27T15:59:33;0.93;;;0.93;;
3259;SDS011;22469;48.150;14.004;2022-09-27T16:02:05;0.90;;;0.90;;
3259;SDS011;22469;48.150;14.004;2022-09-27T16:04:41;0.80;;;0.80;;
3259;SDS011;22469;48.150;14.004;2022-09-27T16:07:08;0.90;;;0.90;;
3259;SDS011;22469;48.150;14.004;2022-09-27T16:09:37;1.10;;;1.10;;
3259;SDS011;22469;48.150;14.004;2022-09-27T16:12:07;0.90;;;0.90;;
3259;SDS011;22469;48.150;14.004;2022-09-27T16:14:46;3.67;;;0.90;;
3259;SDS011;22469;48.150;14.004;2022-09-27T16:17:14;1.37;;;1.10;;
3259;SDS011;22469;48.150;14.004;2022-09-27T16:19:41;1.93;;;1.83;;
3259;SDS011;22469;48.150;14.004;2022-09-27T16:22:08;1.43;;;1.33;;
3259;SDS011;22469;48.150;14.004;2022-09-27T16:24:36;1.20;;;1.20;;
3259;SDS011;22469;48.150;14.004;2022-09-27T16:27:03;0.90;;;0.90;;
3259;SDS011;22469;48.150;14.004;2022-09-27T16:29:30;1.20;;;1.10;;
3259;SDS011;22469;48.150;14.004;2022-09-27T16:31:57;7.10;;;1.53;;
3259;SDS011;22469;48.150;14.004;2022-09-27T16:34:24;1.00;;;1.00;;
3259;SDS011;22469;48.150;14.004;2022-09-27T16:36:51;1.33;;;1.00;;
3259;SDS011;22469;48.150;14.004;2022-09-27T16:39:18;7.40;;;3.70;;
3259;SDS011;22469;48.150;14.004;2022-09-27T16:41:45;4.20;;;3.80;;
3259;SDS011;22469;48.150;14.004;2022-09-27T16:44:13;2.43;;;1.80;;
3259;SDS011;22469;48.150;14.004;2022-09-27T16:46:43;1.87;;;1.77;;
3259;SDS011;22469;48.150;14.004;2022-09-27T16:49:13;3.63;;;3.33;;
3259;SDS011;22469;48.150;14.004;2022-09-27T16:51:59;1.60;;;1.60;;
3259;SDS011;22469;48.150;14.004;2022-09-27T16:54:29;2.20;;;2.10;;
3259;SDS011;22469;48.150;14.004;2022-09-27T16:56:57;1.87;;;1.77;;
3259;SDS011;22469;48.150;14.004;2022-09-27T16:59:24;1.90;;;1.70;;
3259;SDS011;22469;48.150;14.004;2022-09-27T17:01:52;2.20;;;2.00;;
3259;SDS011;22469;48.150;14.004;2022-09-27T17:04:24;3.00;;;1.43;;
3259;SDS011;22469;48.150;14.004;2022-09-27T17:06:54;1.80;;;1.40;;
3259;SDS011;22469;48.150;14.004;2022-09-27T17:09:23;1.80;;;1.70;;
3259;SDS011;22469;48.150;14.004;2022-09-27T17:11:50;1.67;;;1.50;;
3259;SDS011;22469;48.150;14.004;2022-09-27T17:14:18;1.80;;;1.70;;
3259;SDS011;22469;48.150;14.004;2022-09-27T17:16:49;4.57;;;4.17;;
3259;SDS011;22469;48.150;14.004;2022-09-27T17:19:49;3.33;;;3.13;;
3259;SDS011;22469;48.150;14.004;2022-09-27T17:23:04;3.30;;;3.00;;
3259;SDS011;22469;48.150;14.004;2022-09-27T17:25:31;2.80;;;2.60;;
3259;SDS011;22469;48.150;14.004;2022-09-27T17:27:58;3.20;;;3.00;;
3259;SDS011;22469;48.150;14.004;2022-09-27T17:30:26;1.77;;;1.67;;
3259;SDS011;22469;48.150;14.004;2022-09-27T17:32:56;1.67;;;1.53;;
3259;SDS011;22469;48.150;14.004;2022-09-27T17:35:23;1.87;;;1.73;;
3259;SDS011;22469;48.150;14.004;2022-09-27T17:37:50;2.10;;;2.00;;
3259;SDS011;22469;48.150;14.004;2022-09-27T17:40:20;2.03;;;1.93;;
3259;SDS011;22469;48.150;14.004;2022-09-27T17:43:00;1.67;;;1.57;;
3259;SDS011;22469;48.150;14.004;2022-09-27T17:45:32;5.67;;;2.10;;
3259;SDS011;22469;48.150;14.004;2022-09-27T17:48:00;3.07;;;2.87;;
3259;SDS011;22469;48.150;14.004;2022-09-27T17:50:45;5.03;;;4.23;;
3259;SDS011;22469;48.150;14.004;2022-09-27T17:53:13;3.10;;;2.60;;
3259;SDS011;22469;48.150;14.004;2022-09-27T17:55:41;3.07;;;2.87;;
3259;SDS011;22469;48.150;14.004;2022-09-27T17:58:08;2.80;;;2.30;;
3259;SDS011;22469;48.150;14.004;2022-09-27T18:00:35;3.10;;;2.90;;
3259;SDS011;22469;48.150;14.004;2022-09-27T18:03:01;2.57;;;2.47;;
3259;SDS011;22469;48.150;14.004;2022-09-27T18:05:29;2.40;;;2.30;;
3259;SDS011;22469;48.150;14.004;2022-09-27T18:07:57;3.37;;;3.10;;
3259;SDS011;22469;48.150;14.004;2022-09-27T18:10:24;4.20;;;3.70;;
3259;SDS011;22469;48.150;14.004;2022-09-27T18:12:52;3.67;;;3.17;;
3259;SDS011;22469;48.150;14.004;2022-09-27T18:15:21;4.07;;;3.87;;
3259;SDS011;22469;48.150;14.004;2022-09-27T18:18:24;4.50;;;3.10;;
3259;SDS011;22469;48.150;14.004;2022-09-27T18:20:53;2.87;;;2.63;;
3259;SDS011;22469;48.150;14.004;2022-09-27T18:23:20;2.60;;;2.50;;
3259;SDS011;22469;48.150;14.004;2022-09-27T18:25:53;1.90;;;1.80;;
3259;SDS011;22469;48.150;14.004;2022-09-27T18:28:25;2.60;;;2.40;;
3259;SDS011;22469;48.150;14.004;2022-09-27T18:31:00;2.50;;;1.50;;
3259;SDS011;22469;48.150;14.004;2022-09-27T18:33:32;2.10;;;2.00;;
3259;SDS011;22469;48.150;14.004;2022-09-27T18:36:10;2.37;;;2.03;;
3259;SDS011;22469;48.150;14.004;2022-09-27T18:38:40;1.80;;;1.70;;
3259;SDS011;22469;48.150;14.004;2022-09-27T18:41:09;2.93;;;1.63;;
3259;SDS011;22469;48.150;14.004;2022-09-27T18:43:40;1.20;;;1.20;;